Time;durP1;ratioP1;P1;durP2;ratioP2;P2;SDS_P1;SDS_P2;PMS_P1;PMS_P2;Temp;Humidity;BMP_temperature;BMP_pressure;BME280_temperature;BME280_humidity;BME280_pressure;Samples;Min_cycle;Max_cycle;Signal;HPM_P1;HPM_P2
2022/04/12 00:00:58;;;;;;;8.30;6.07;;;;;;;4.67;nan;-23946.88;4957478;28;20233;-71
2022/04/12 00:03:24;;;;;;;9.43;5.80;;;;;;;5.25;nan;-23963.38;4948280;29;20189;-71
2022/04/12 00:05:51;;;;;;;8.37;6.07;;;;;;;5.36;nan;-23966.38;4952454;29;20200;-71
2022/04/12 00:08:16;;;;;;;9.83;5.77;;;;;;;5.12;nan;-23959.53;4952623;29;20277;-71
2022/04/12 00:10:42;;;;;;;7.97;5.50;;;;;;;4.96;nan;-23955.13;4955209;29;20289;-71
2022/04/12 00:13:08;;;;;;;8.90;5.83;;;;;;;5.14;nan;-23960.09;4955395;28;20603;-71
2022/04/12 00:15:33;;;;;;;7.03;5.10;;;;;;;5.15;nan;-23960.53;4952897;29;20622;-71
2022/04/12 00:20:44;;;;;;;8.27;5.83;;;;;;;5.15;nan;-23960.53;4955343;29;20208;-71
2022/04/12 00:23:14;;;;;;;7.90;5.63;;;;;;;5.14;nan;-23960.09;4954080;28;20276;-70
2022/04/12 00:25:42;;;;;;;6.93;5.03;;;;;;;5.00;nan;-23956.13;4952216;28;20201;-70
2022/04/12 00:28:08;;;;;;;7.53;4.93;;;;;;;4.62;nan;-23945.47;4950931;28;20646;-70
2022/04/12 00:30:34;;;;;;;10.30;5.43;;;;;;;4.66;nan;-23946.59;4950415;29;20197;-70
2022/04/12 00:33:00;;;;;;;8.17;5.20;;;;;;;4.43;nan;-23940.34;4953101;29;20282;-70
2022/04/12 00:35:26;;;;;;;6.67;4.93;;;;;;;4.76;nan;-23949.59;4948013;29;20654;-70
2022/04/12 00:37:52;;;;;;;6.53;4.87;;;;;;;4.50;nan;-23942.19;4956428;28;20205;-70
2022/04/12 00:40:18;;;;;;;7.53;5.17;;;;;;;4.75;nan;-23949.16;4949611;28;20233;-70
2022/04/12 00:42:45;;;;;;;6.97;4.80;;;;;;;4.55;nan;-23943.59;4954192;29;20191;-70
2022/04/12 00:45:11;;;;;;;9.87;5.43;;;;;;;4.48;nan;-23941.47;4954357;29;20182;-70
2022/04/12 00:47:37;;;;;;;7.13;4.90;;;;;;;4.57;nan;-23944.19;4951671;28;20193;-70
2022/04/12 00:50:07;;;;;;;7.40;4.93;;;;;;;4.79;nan;-23950.28;4952022;29;20193;-70
2022/04/12 00:52:36;;;;;;;8.33;5.17;;;;;;;4.92;nan;-23953.84;4953786;28;20322;-70
2022/04/12 00:55:06;;;;;;;6.53;5.20;;;;;;;4.83;nan;-23951.44;4941660;29;20256;-72
2022/04/12 00:57:32;;;;;;;7.83;5.70;;;;;;;4.80;nan;-23950.56;4955741;29;20649;-69
2022/04/12 00:59:59;;;;;;;7.43;5.20;;;;;;;4.58;nan;-23944.31;4955649;28;20182;-72
2022/04/12 01:02:26;;;;;;;6.33;5.07;;;;;;;4.47;nan;-23941.19;4955908;29;20177;-69
2022/04/12 01:04:51;;;;;;;8.43;5.13;;;;;;;4.87;nan;-23952.56;4952628;29;20186;-70
2022/04/12 01:07:17;;;;;;;8.70;5.63;;;;;;;4.58;nan;-23944.31;4952263;28;20833;-70
2022/04/12 01:09:43;;;;;;;9.63;5.30;;;;;;;4.26;nan;-23935.50;4954724;29;20190;-70
2022/04/12 01:12:10;;;;;;;8.47;5.53;;;;;;;4.73;nan;-23948.72;4954163;29;20195;-70
2022/04/12 01:14:36;;;;;;;6.77;5.07;;;;;;;4.24;nan;-23934.91;4944672;29;20661;-70
2022/04/12 01:17:04;;;;;;;6.87;5.40;;;;;;;4.58;nan;-23944.31;4969493;28;20565;-70
2022/04/12 01:19:30;;;;;;;8.53;5.60;;;;;;;4.43;nan;-23940.19;4951358;29;20188;-70
2022/04/12 01:22:03;;;;;;;6.93;5.40;;;;;;;4.58;nan;-23944.31;4948943;29;20186;-71
2022/04/12 01:24:30;;;;;;;7.87;5.77;;;;;;;4.38;nan;-23938.91;4953967;29;20240;-72
2022/04/12 01:26:56;;;;;;;6.77;4.90;;;;;;;4.30;nan;-23936.50;4953013;29;20190;-72
2022/04/12 01:29:23;;;;;;;6.83;5.57;;;;;;;4.61;nan;-23945.16;4947651;29;20289;-72
2022/04/12 01:31:49;;;;;;;8.53;5.77;;;;;;;4.25;nan;-23935.06;4950056;29;20198;-72
2022/04/12 01:34:14;;;;;;;7.63;5.63;;;;;;;4.11;nan;-23931.22;4950791;29;20272;-72
2022/04/12 01:36:39;;;;;;;8.20;5.87;;;;;;;4.17;nan;-23932.78;4949282;29;20528;-72
2022/04/12 01:39:05;;;;;;;7.43;5.30;;;;;;;3.99;nan;-23927.94;4951355;29;20670;-72
2022/04/12 01:41:30;;;;;;;9.37;5.47;;;;;;;4.55;nan;-23943.47;4955857;29;20261;-72
2022/04/12 01:43:56;;;;;;;7.27;5.70;;;;;;;4.20;nan;-23933.78;4951829;28;20194;-72
2022/04/12 01:46:22;;;;;;;7.77;5.63;;;;;;;3.94;nan;-23926.53;4955716;29;20181;-70
2022/04/12 01:48:49;;;;;;;6.70;5.70;;;;;;;4.19;nan;-23933.34;4953820;28;20604;-71
2022/04/12 01:51:19;;;;;;;9.00;5.47;;;;;;;4.37;nan;-23938.63;4951531;28;20253;-72
2022/04/12 01:53:51;;;;;;;8.57;5.30;;;;;;;4.49;nan;-23941.75;4960646;28;20207;-71
2022/04/12 01:56:17;;;;;;;9.23;6.40;;;;;;;4.48;nan;-23941.47;4958382;28;20185;-72
2022/04/12 01:58:44;;;;;;;7.43;5.70;;;;;;;4.41;nan;-23939.75;4938165;29;20194;-72
2022/04/12 02:01:13;;;;;;;7.93;5.33;;;;;;;4.00;nan;-23928.09;4958026;28;20196;-72
2022/04/12 02:03:39;;;;;;;6.67;5.17;;;;;;;4.52;nan;-23942.59;4942172;28;20228;-72
2022/04/12 02:06:05;;;;;;;8.23;5.57;;;;;;;4.49;nan;-23941.75;4960510;28;20189;-74
2022/04/12 02:08:31;;;;;;;7.80;5.57;;;;;;;4.46;nan;-23941.03;4959864;28;20188;-71
2022/04/12 02:10:57;;;;;;;12.70;5.83;;;;;;;4.34;nan;-23937.78;4954918;29;20265;-71
2022/04/12 02:13:23;;;;;;;9.77;6.07;;;;;;;4.20;nan;-23933.78;4958962;28;20193;-73
2022/04/12 02:15:48;;;;;;;8.50;6.07;;;;;;;4.25;nan;-23935.22;4962046;28;20223;-71
2022/04/12 02:18:13;;;;;;;9.33;5.80;;;;;;;4.35;nan;-23937.91;4956909;28;20195;-72
2022/04/12 02:20:39;;;;;;;7.53;5.70;;;;;;;4.54;nan;-23943.19;4958450;28;20629;-71
2022/04/12 02:23:04;;;;;;;7.80;5.70;;;;;;;4.42;nan;-23940.03;4957709;28;20711;-72
2022/04/12 02:25:30;;;;;;;9.40;5.80;;;;;;;3.99;nan;-23927.81;4956684;28;20189;-71
2022/04/12 02:27:55;;;;;;;11.73;5.90;;;;;;;4.34;nan;-23937.78;4957369;28;20173;-70
2022/04/12 02:30:21;;;;;;;13.17;6.10;;;;;;;4.27;nan;-23935.63;4958785;28;20263;-72
2022/04/12 02:32:46;;;;;;;9.97;6.33;;;;;;;4.09;nan;-23930.66;4958094;28;20193;-71
2022/04/12 02:35:12;;;;;;;9.30;6.20;;;;;;;4.15;nan;-23932.22;4958497;28;20212;-72
2022/04/12 02:37:37;;;;;;;10.87;6.60;;;;;;;3.99;nan;-23927.81;4959104;28;20566;-70
2022/04/12 02:40:04;;;;;;;10.50;6.57;;;;;;;4.21;nan;-23933.94;4951723;28;21917;-71
2022/04/12 02:42:29;;;;;;;12.37;6.73;;;;;;;4.24;nan;-23934.91;4953558;28;20193;-70
2022/04/12 02:44:55;;;;;;;11.83;7.37;;;;;;;4.21;nan;-23934.06;4953218;28;20259;-70
2022/04/12 02:47:28;;;;;;;11.20;7.20;;;;;;;3.67;nan;-23918.69;4954499;28;20196;-71
2022/04/12 02:49:53;;;;;;;11.53;6.73;;;;;;;3.88;nan;-23924.81;4961111;28;20244;-73
2022/04/12 02:52:19;;;;;;;11.37;7.27;;;;;;;3.70;nan;-23919.53;4955482;28;20743;-73
2022/04/12 02:54:44;;;;;;;11.70;7.47;;;;;;;3.42;nan;-23911.69;4955512;28;20308;-71
2022/04/12 02:57:10;;;;;;;12.03;7.27;;;;;;;3.75;nan;-23921.09;4956069;28;20664;-73
2022/04/12 02:59:35;;;;;;;12.13;7.90;;;;;;;3.41;nan;-23911.56;4954422;29;20498;-73
2022/04/12 03:02:01;;;;;;;13.47;7.73;;;;;;;3.28;nan;-23907.84;4958710;28;20332;-72
2022/04/12 03:04:26;;;;;;;12.07;7.60;;;;;;;3.28;nan;-23907.84;4952470;28;20574;-72
2022/04/12 03:06:51;;;;;;;13.03;8.13;;;;;;;3.43;nan;-23911.97;4956891;28;20254;-73
2022/04/12 03:09:18;;;;;;;12.37;7.97;;;;;;;3.41;nan;-23911.41;4958193;28;20184;-71
2022/04/12 03:11:44;;;;;;;18.10;8.07;;;;;;;2.87;nan;-23896.16;4952382;28;20207;-71
2022/04/12 03:14:09;;;;;;;13.70;7.90;;;;;;;3.30;nan;-23908.28;4958786;28;20727;-71
2022/04/12 03:16:34;;;;;;;14.77;8.40;;;;;;;3.00;nan;-23899.88;4955514;28;20181;-72
2022/04/12 03:19:00;;;;;;;13.40;8.63;;;;;;;3.22;nan;-23906.13;4956032;28;20651;-70
2022/04/12 03:21:25;;;;;;;15.60;8.77;;;;;;;3.04;nan;-23901.00;4942755;28;20207;-72
2022/04/12 03:23:50;;;;;;;14.00;8.10;;;;;;;2.73;nan;-23892.31;4952646;28;20569;-71
2022/04/12 03:26:16;;;;;;;15.67;8.67;;;;;;;3.05;nan;-23901.28;4955888;28;20192;-71
2022/04/12 03:28:41;;;;;;;12.83;7.77;;;;;;;3.06;nan;-23901.56;4951394;28;20199;-72
2022/04/12 03:31:07;;;;;;;17.70;8.17;;;;;;;3.09;nan;-23902.44;4953696;28;20705;-74
2022/04/12 03:33:32;;;;;;;16.33;7.97;;;;;;;3.19;nan;-23905.28;4953974;28;20204;-73
2022/04/12 03:35:58;;;;;;;14.40;7.80;;;;;;;3.18;nan;-23905.00;4953821;28;20176;-73
2022/04/12 03:38:23;;;;;;;14.43;7.60;;;;;;;2.98;nan;-23899.28;4949977;28;20208;-71
2022/04/12 03:40:49;;;;;;;15.17;7.23;;;;;;;3.05;nan;-23901.44;4951516;28;20208;-73
2022/04/12 03:43:14;;;;;;;14.43;7.70;;;;;;;2.90;nan;-23897.16;4951539;28;20184;-72
2022/04/12 03:45:40;;;;;;;14.10;7.63;;;;;;;2.68;nan;-23891.00;4954656;28;20291;-71
2022/04/12 03:48:08;;;;;;;13.60;8.10;;;;;;;3.14;nan;-23903.72;4953959;28;20191;-71
2022/04/12 03:50:34;;;;;;;11.37;7.53;;;;;;;3.34;nan;-23909.41;4952163;28;20194;-73
2022/04/12 03:53:00;;;;;;;14.27;7.87;;;;;;;3.88;nan;-23924.81;4950719;28;20208;-71
2022/04/12 03:55:34;;;;;;;15.77;8.07;;;;;;;3.64;nan;-23917.97;4955615;28;20216;-73
2022/04/12 03:58:05;;;;;;;11.80;7.93;;;;;;;4.23;nan;-23934.50;4952144;28;20174;-73
2022/04/12 04:00:32;;;;;;;15.03;7.67;;;;;;;4.26;nan;-23935.50;4953968;28;20255;-71
2022/04/12 04:02:58;;;;;;;12.87;8.03;;;;;;;4.50;nan;-23942.03;4939645;28;20196;-73
2022/04/12 04:05:24;;;;;;;12.93;8.07;;;;;;;4.52;nan;-23942.75;4953758;28;20181;-66
2022/04/12 04:07:50;;;;;;;14.60;7.70;;;;;;;4.50;nan;-23942.03;4952165;28;20200;-66
2022/04/12 04:10:16;;;;;;;15.00;7.50;;;;;;;4.96;nan;-23955.00;4955011;28;20193;-66
2022/04/12 04:12:43;;;;;;;11.90;7.27;;;;;;;5.90;nan;-23981.56;4951627;28;20197;-67
2022/04/12 04:15:12;;;;;;;12.40;7.97;;;;;;;6.24;nan;-23991.09;4950345;28;20224;-68
2022/04/12 04:17:42;;;;;;;13.33;8.10;;;;;;;6.56;nan;-24000.19;4952852;28;20211;-69
2022/04/12 04:20:10;;;;;;;13.07;7.87;;;;;;;6.68;nan;-24003.31;4954906;28;20229;-70
2022/04/12 04:22:35;;;;;;;12.87;7.87;;;;;;;6.92;nan;-24010.13;4964313;28;20197;-69
2022/04/12 04:25:01;;;;;;;11.87;7.13;;;;;;;6.57;nan;-24000.47;4982551;28;20219;-70
2022/04/12 04:27:28;;;;;;;13.93;7.70;;;;;;;6.71;nan;-24004.28;4978500;28;20197;-70
2022/04/12 04:29:57;;;;;;;13.60;7.90;;;;;;;7.13;nan;-24015.94;4965235;28;20186;-68
2022/04/12 04:32:23;;;;;;;13.60;7.80;;;;;;;7.12;nan;-24015.66;4960970;28;20192;-69
2022/04/12 04:34:48;;;;;;;14.17;7.50;;;;;;;6.91;nan;-24009.97;4971510;28;20209;-68
2022/04/12 04:37:14;;;;;;;12.37;7.20;;;;;;;7.22;nan;-24018.63;4962266;28;20193;-69
2022/04/12 04:39:39;;;;;;;11.77;7.77;;;;;;;6.76;nan;-24005.72;4959122;28;20185;-68
2022/04/12 04:42:05;;;;;;;13.17;8.03;;;;;;;6.70;nan;-24003.88;4962918;28;20299;-66
2022/04/12 04:44:31;;;;;;;11.60;7.17;;;;;;;6.62;nan;-24001.88;4958462;28;20198;-66
2022/04/12 04:46:57;;;;;;;13.23;7.33;;;;;;;6.49;nan;-23998.06;4960718;28;20546;-66
2022/04/12 04:49:22;;;;;;;11.50;6.93;;;;;;;6.37;nan;-23994.66;4955748;29;20186;-66
2022/04/12 04:51:48;;;;;;;11.07;6.90;;;;;;;6.30;nan;-23992.66;4954841;29;20399;-66
2022/04/12 04:54:14;;;;;;;11.70;6.90;;;;;;;6.04;nan;-23985.41;4954745;29;20206;-66
2022/04/12 04:56:39;;;;;;;11.10;6.67;;;;;;;6.14;nan;-23988.41;4952810;28;20190;-66
2022/04/12 04:59:05;;;;;;;12.27;7.27;;;;;;;6.02;nan;-23984.97;4954538;29;20264;-67
2022/04/12 05:01:31;;;;;;;10.20;6.60;;;;;;;6.60;nan;-24001.31;4950792;29;21202;-66
2022/04/12 05:03:56;;;;;;;24.07;10.50;;;;;;;6.58;nan;-24000.75;4952915;29;20591;-66
2022/04/12 05:06:21;;;;;;;10.60;6.80;;;;;;;6.58;nan;-24000.59;4952642;29;20182;-66
2022/04/12 05:08:47;;;;;;;13.97;6.17;;;;;;;7.01;nan;-24012.81;4952110;28;20190;-67
2022/04/12 05:11:12;;;;;;;10.20;6.23;;;;;;;7.31;nan;-24021.16;4950051;29;20180;-67
2022/04/12 05:13:38;;;;;;;14.53;6.50;;;;;;;7.01;nan;-24012.81;4951751;28;20222;-66
2022/04/12 05:16:04;;;;;;;12.73;6.13;;;;;;;7.21;nan;-24018.19;4957060;28;20568;-67
2022/04/12 05:18:29;;;;;;;13.80;6.27;;;;;;;7.11;nan;-24015.50;4955123;29;20196;-66
2022/04/12 05:20:54;;;;;;;11.50;6.30;;;;;;;7.33;nan;-24021.75;4953408;29;20187;-66
2022/04/12 05:23:20;;;;;;;13.27;6.90;;;;;;;7.28;nan;-24020.31;4955489;29;20696;-68
2022/04/12 05:25:45;;;;;;;15.80;7.43;;;;;;;7.78;nan;-24034.34;4954264;29;20178;-68
2022/04/12 05:28:11;;;;;;;11.33;7.43;;;;;;;7.29;nan;-24020.59;4954640;29;20196;-67
2022/04/12 05:30:36;;;;;;;11.00;7.30;;;;;;;8.22;nan;-24046.53;4954718;28;20190;-67
2022/04/12 05:33:02;;;;;;;14.20;7.00;;;;;;;7.81;nan;-24035.06;4951937;28;20216;-67
2022/04/12 05:35:27;;;;;;;13.47;6.47;;;;;;;8.22;nan;-24046.53;4955549;28;20210;-67
2022/04/12 05:37:53;;;;;;;10.20;6.33;;;;;;;8.12;nan;-24043.84;4955324;29;20182;-70
2022/04/12 05:40:21;;;;;;;12.07;5.63;;;;;;;8.00;nan;-24040.59;4953790;29;20193;-68
2022/04/12 05:42:47;;;;;;;9.43;6.00;;;;;;;8.66;nan;-24059.00;4955067;29;20193;-68
2022/04/12 05:45:13;;;;;;;12.13;6.23;;;;;;;8.33;nan;-24049.78;4954945;28;20186;-68
2022/04/12 05:47:46;;;;;;;10.67;5.30;;;;;;;8.98;nan;-24067.75;4954861;29;20185;-69
2022/04/12 05:50:14;;;;;;;9.57;5.00;;;;;;;8.71;nan;-24060.41;4953594;28;20634;-69
2022/04/12 05:52:40;;;;;;;7.53;5.53;;;;;;;8.69;nan;-24059.69;4937942;29;20256;-69
2022/04/12 05:55:10;;;;;;;8.97;4.93;;;;;;;8.85;nan;-24064.22;4951505;29;20686;-68
2022/04/12 05:57:47;;;;;;;6.50;4.47;;;;;;;9.11;nan;-24071.44;4954285;29;20174;-69
2022/04/12 06:00:13;;;;;;;12.47;5.10;;;;;;;9.06;nan;-24070.16;4948914;29;20181;-67
2022/04/12 06:02:38;;;;;;;12.80;5.53;;;;;;;9.11;nan;-24071.59;4954687;28;20173;-67
2022/04/12 06:05:05;;;;;;;11.97;5.97;;;;;;;9.27;nan;-24075.97;4954654;28;20174;-67
2022/04/12 06:07:34;;;;;;;12.40;5.47;;;;;;;9.36;nan;-24078.50;4954637;29;20546;-66
2022/04/12 06:10:01;;;;;;;7.80;4.90;;;;;;;9.52;nan;-24083.03;4954528;29;20180;-67
2022/04/12 06:12:27;;;;;;;6.93;4.47;;;;;;;9.43;nan;-24080.34;4953872;29;20178;-67
2022/04/12 06:14:54;;;;;;;7.90;4.63;;;;;;;9.52;nan;-24083.03;4954375;29;20693;-67
2022/04/12 06:17:19;;;;;;;6.07;4.47;;;;;;;9.34;nan;-24077.94;4954516;29;20178;-67
2022/04/12 06:19:44;;;;;;;6.70;4.73;;;;;;;9.84;nan;-24091.94;4954575;29;20676;-66
2022/04/12 06:22:10;;;;;;;8.67;4.80;;;;;;;9.82;nan;-24091.22;4954425;29;20173;-66
2022/04/12 06:24:35;;;;;;;10.73;5.00;;;;;;;9.95;nan;-24095.03;4954226;29;20563;-67
2022/04/12 06:27:01;;;;;;;9.03;5.00;;;;;;;9.81;nan;-24091.09;4954140;29;20182;-67
2022/04/12 06:29:27;;;;;;;6.50;4.60;;;;;;;10.15;nan;-24100.53;4952602;29;20181;-68
2022/04/12 06:31:52;;;;;;;7.10;4.97;;;;;;;10.42;nan;-24108.03;4953997;29;20154;-70
2022/04/12 06:34:17;;;;;;;6.67;4.27;;;;;;;10.16;nan;-24100.97;4954659;29;20197;-66
2022/04/12 06:36:43;;;;;;;8.07;4.53;;;;;;;10.16;nan;-24100.84;4954641;29;20306;-66
2022/04/12 06:39:08;;;;;;;8.33;4.93;;;;;;;10.06;nan;-24098.00;4954114;29;20540;-66
2022/04/12 06:41:33;;;;;;;8.20;3.83;;;;;;;10.56;nan;-24111.97;4952404;29;20182;-66
2022/04/12 06:43:59;;;;;;;8.90;4.45;;;;;;;10.63;nan;-24113.97;4953271;29;20195;-66
2022/04/12 06:46:24;;;;;;;7.30;4.60;;;;;;;10.78;nan;-24118.03;4947740;28;20178;-66
2022/04/12 06:48:50;;;;;;;6.85;4.40;;;;;;;10.59;nan;-24112.81;4947229;28;20634;-66
2022/04/12 06:51:15;;;;;;;8.70;4.20;;;;;;;11.08;nan;-24126.50;4947269;29;20228;-66
2022/04/12 06:53:40;;;;;;;9.40;4.63;;;;;;;10.78;nan;-24118.19;4945051;29;20194;-66
2022/04/12 06:56:06;;;;;;;6.78;4.45;;;;;;;10.79;nan;-24118.34;4945359;28;20642;-67
2022/04/12 06:58:33;;;;;;;10.82;4.97;;;;;;;11.37;nan;-24134.69;4947114;29;20781;-66
2022/04/12 07:00:58;;;;;;;10.20;5.65;;;;;;;11.29;nan;-24132.28;4948361;29;20190;-66
2022/04/12 07:03:24;;;;;;;9.63;4.35;;;;;;;11.20;nan;-24129.75;4946038;29;20594;-66
2022/04/12 07:05:55;;;;;;;19.10;4.72;;;;;;;11.14;nan;-24128.19;4945946;29;20264;-66
2022/04/12 07:08:21;;;;;;;5.10;3.90;;;;;;;11.39;nan;-24135.25;4944720;29;20653;-67
2022/04/12 07:10:46;;;;;;;8.27;3.88;;;;;;;11.21;nan;-24130.03;4951804;29;20190;-67
2022/04/12 07:13:12;;;;;;;5.90;3.85;;;;;;;11.47;nan;-24137.50;4949913;29;20565;-67
2022/04/12 07:15:39;;;;;;;6.80;4.30;;;;;;;11.71;nan;-24143.97;4949204;29;20216;-67
2022/04/12 07:18:04;;;;;;;6.35;3.95;;;;;;;11.90;nan;-24149.34;4951477;29;20227;-67
2022/04/12 07:20:30;;;;;;;5.78;4.18;;;;;;;11.61;nan;-24141.16;4946774;29;20227;-66
2022/04/12 07:22:55;;;;;;;6.95;4.00;;;;;;;11.99;nan;-24151.72;4947098;29;20193;-66
2022/04/12 07:25:21;;;;;;;5.45;3.63;;;;;;;11.93;nan;-24150.19;4948546;28;20182;-67
2022/04/12 07:27:46;;;;;;;4.47;3.78;;;;;;;11.84;nan;-24147.78;4947601;29;20177;-67
2022/04/12 07:30:12;;;;;;;5.97;3.85;;;;;;;11.75;nan;-24145.13;4950357;29;20177;-67
2022/04/12 07:32:38;;;;;;;7.55;3.67;;;;;;;11.71;nan;-24143.97;4945629;29;20550;-69
2022/04/12 07:35:05;;;;;;;5.95;3.75;;;;;;;11.56;nan;-24139.75;4944507;29;20206;-68
2022/04/12 07:37:31;;;;;;;4.47;3.83;;;;;;;11.94;nan;-24150.47;4945879;29;20794;-69
2022/04/12 07:39:57;;;;;;;6.43;3.53;;;;;;;12.06;nan;-24153.84;4946114;29;20186;-68
2022/04/12 07:42:23;;;;;;;5.72;3.80;;;;;;;12.24;nan;-24158.78;4948957;28;20219;-66
2022/04/12 07:44:49;;;;;;;6.88;4.57;;;;;;;12.35;nan;-24162.00;4946889;29;20186;-67
2022/04/12 07:47:14;;;;;;;4.35;3.40;;;;;;;12.26;nan;-24159.47;4949194;28;20174;-66
2022/04/12 07:49:40;;;;;;;6.25;3.90;;;;;;;12.47;nan;-24165.25;4952419;29;20251;-67
2022/04/12 07:52:06;;;;;;;5.93;3.95;;;;;;;12.43;nan;-24164.13;4956224;28;20240;-67
2022/04/12 07:54:31;;;;;;;4.28;3.50;;;;;;;12.52;nan;-24166.66;4954859;28;20212;-67
2022/04/12 07:56:57;;;;;;;6.35;3.53;;;;;;;12.54;nan;-24167.06;4954711;28;20173;-67
2022/04/12 07:59:22;;;;;;;5.07;3.78;;;;;;;12.91;nan;-24177.47;4960893;28;20185;-67
2022/04/12 08:01:47;;;;;;;5.75;3.70;;;;;;;12.58;nan;-24168.34;4962408;28;20204;-68
2022/04/12 08:04:13;;;;;;;7.30;3.60;;;;;;;12.47;nan;-24165.25;4961111;28;20185;-67
2022/04/12 08:06:38;;;;;;;6.53;3.42;;;;;;;13.02;nan;-24180.56;4957043;28;20382;-67
2022/04/12 08:09:04;;;;;;;5.38;3.42;;;;;;;13.20;nan;-24185.50;4963229;28;20241;-67
2022/04/12 08:11:31;;;;;;;6.82;3.53;;;;;;;13.18;nan;-24184.94;4960981;28;20273;-67
2022/04/12 08:13:57;;;;;;;4.38;3.67;;;;;;;12.86;nan;-24176.06;4956985;29;20182;-67
2022/04/12 08:16:23;;;;;;;6.43;3.92;;;;;;;12.83;nan;-24175.22;4959451;28;20205;-67
2022/04/12 08:18:48;;;;;;;6.38;3.28;;;;;;;13.26;nan;-24187.31;4956750;29;20181;-66
2022/04/12 08:21:13;;;;;;;6.00;4.22;;;;;;;13.22;nan;-24186.19;4956994;29;20660;-68
2022/04/12 08:23:39;;;;;;;7.25;3.60;;;;;;;13.25;nan;-24186.91;4956684;29;20174;-67
2022/04/12 08:26:04;;;;;;;6.47;3.28;;;;;;;13.36;nan;-24189.84;4956718;29;20186;-67
2022/04/12 08:28:30;;;;;;;6.95;3.80;;;;;;;12.89;nan;-24176.91;4957020;29;20673;-67
2022/04/12 08:30:55;;;;;;;5.60;4.10;;;;;;;13.40;nan;-24190.97;4956892;29;20178;-67
2022/04/12 08:33:20;;;;;;;5.75;3.80;;;;;;;12.99;nan;-24179.59;4957033;28;20164;-67
2022/04/12 08:35:46;;;;;;;5.07;3.53;;;;;;;13.15;nan;-24184.09;4956639;29;20197;-67
2022/04/12 08:38:11;;;;;;;5.03;3.65;;;;;;;13.01;nan;-24180.28;4956798;28;20299;-67
2022/04/12 08:40:39;;;;;;;5.88;3.47;;;;;;;13.16;nan;-24184.38;4956484;28;20185;-67
2022/04/12 08:43:07;;;;;;;10.10;3.45;;;;;;;13.50;nan;-24193.78;4956514;28;20179;-67
2022/04/12 08:45:36;;;;;;;5.03;3.40;;;;;;;13.96;nan;-24206.56;4956413;28;20174;-67
2022/04/12 08:48:02;;;;;;;7.13;4.43;;;;;;;13.49;nan;-24193.50;4956261;28;20181;-67
2022/04/12 08:50:28;;;;;;;7.20;4.85;;;;;;;13.97;nan;-24206.84;4960660;28;20189;-67
2022/04/12 08:52:54;;;;;;;4.80;3.63;;;;;;;14.09;nan;-24210.34;4955824;29;20230;-66
2022/04/12 08:55:20;;;;;;;7.32;3.60;;;;;;;14.28;nan;-24215.41;4956375;28;20245;-67
2022/04/12 08:57:45;;;;;;;8.20;3.80;;;;;;;14.07;nan;-24209.78;4956212;29;20206;-66
2022/04/12 09:00:11;;;;;;;6.68;3.47;;;;;;;13.91;nan;-24205.28;4954501;29;20589;-68
2022/04/12 09:02:38;;;;;;;5.40;3.72;;;;;;;13.75;nan;-24200.81;4956072;28;20280;-68
2022/04/12 09:05:06;;;;;;;5.28;3.90;;;;;;;14.10;nan;-24210.63;4956244;28;20685;-68
2022/04/12 09:07:31;;;;;;;5.28;3.65;;;;;;;14.10;nan;-24210.50;4955896;28;20182;-68
2022/04/12 09:10:06;;;;;;;6.32;4.50;;;;;;;13.98;nan;-24207.25;4954922;29;20189;-68
2022/04/12 09:12:36;;;;;;;5.03;4.10;;;;;;;14.05;nan;-24209.09;4955982;28;20689;-68
2022/04/12 09:15:02;;;;;;;5.93;3.80;;;;;;;13.75;nan;-24200.66;4955943;28;20206;-68
2022/04/12 09:17:41;;;;;;;6.07;3.72;;;;;;;13.36;nan;-24189.84;4956003;28;20197;-68
2022/04/12 09:20:15;;;;;;;4.38;3.53;;;;;;;14.09;nan;-24210.19;4955850;28;20709;-68
2022/04/12 09:22:40;;;;;;;6.72;3.83;;;;;;;13.94;nan;-24206.00;4955706;28;20682;-67
2022/04/12 09:25:10;;;;;;;6.13;3.70;;;;;;;13.73;nan;-24200.25;4955990;28;20178;-67
2022/04/12 09:27:36;;;;;;;5.22;3.70;;;;;;;14.24;nan;-24214.28;4955919;28;20174;-67
2022/04/12 09:30:02;;;;;;;5.45;3.80;;;;;;;14.47;nan;-24220.72;4954537;28;20225;-67
2022/04/12 09:32:29;;;;;;;7.50;3.75;;;;;;;14.27;nan;-24215.25;4954887;29;20212;-67
2022/04/12 09:34:56;;;;;;;6.68;3.70;;;;;;;14.82;nan;-24230.41;4957356;29;20335;-67
2022/04/12 09:37:32;;;;;;;5.28;3.55;;;;;;;14.85;nan;-24231.38;4979981;28;20186;-67
2022/04/12 09:40:01;;;;;;;6.72;3.55;;;;;;;14.83;nan;-24230.69;4980351;29;20174;-67
2022/04/12 09:43:00;;;;;;;5.63;3.58;;;;;;;15.02;nan;-24236.00;4957599;29;20275;-67
2022/04/12 09:45:27;;;;;;;4.65;3.60;;;;;;;14.79;nan;-24229.69;4940859;29;20200;-68
2022/04/12 09:47:55;;;;;;;4.80;3.58;;;;;;;14.66;nan;-24225.91;4954905;29;20198;-69
2022/04/12 09:50:31;;;;;;;7.28;3.40;;;;;;;14.90;nan;-24232.63;4954595;29;20201;-68
2022/04/12 09:52:59;;;;;;;5.55;3.70;;;;;;;14.85;nan;-24231.38;4955198;29;20221;-67
2022/04/12 09:55:44;;;;;;;7.80;3.15;;;;;;;14.85;nan;-24231.25;4954323;29;20229;-66
2022/04/12 09:58:15;;;;;;;3.70;3.00;;;;;;;14.72;nan;-24227.59;4953183;29;20237;-66
2022/04/12 10:00:42;;;;;;;8.02;3.58;;;;;;;14.59;nan;-24224.09;4954690;29;20635;-66
2022/04/12 10:03:13;;;;;;;5.50;3.33;;;;;;;14.77;nan;-24229.13;4954589;29;20209;-66
2022/04/12 10:05:39;;;;;;;4.10;3.40;;;;;;;15.02;nan;-24236.00;4954527;29;20213;-66
2022/04/12 10:08:10;;;;;;;4.68;3.20;;;;;;;14.78;nan;-24229.28;4937292;29;20208;-66
2022/04/12 10:10:35;;;;;;;5.47;3.30;;;;;;;14.14;nan;-24211.59;4954104;29;20185;-66
2022/04/12 10:13:01;;;;;;;4.43;3.28;;;;;;;14.23;nan;-24214.13;4954488;29;20171;-66
2022/04/12 10:15:28;;;;;;;4.57;3.22;;;;;;;14.65;nan;-24225.78;4954570;29;20669;-66
2022/04/12 10:17:54;;;;;;;6.35;3.30;;;;;;;15.05;nan;-24236.84;4954066;29;20162;-67
2022/04/12 10:20:20;;;;;;;6.50;3.17;;;;;;;14.88;nan;-24232.09;4953434;28;20692;-66
2022/04/12 10:22:46;;;;;;;6.68;3.10;;;;;;;15.16;nan;-24239.78;4953641;29;20253;-67
2022/04/12 10:25:17;;;;;;;5.07;3.03;;;;;;;15.02;nan;-24236.00;4953577;29;20178;-67
2022/04/12 10:27:43;;;;;;;4.85;2.97;;;;;;;15.32;nan;-24244.41;4953444;29;20234;-69
2022/04/12 10:30:21;;;;;;;4.20;3.00;;;;;;;15.45;nan;-24247.91;4953435;29;20265;-65
2022/04/12 10:33:26;;;;;;;4.45;3.17;;;;;;;15.64;nan;-24253.09;4953184;29;20178;-66
2022/04/12 10:35:54;;;;;;;5.57;3.25;;;;;;;15.44;nan;-24247.63;4953593;29;20554;-66
2022/04/12 10:38:20;;;;;;;4.88;2.78;;;;;;;15.05;nan;-24236.84;4953648;29;20185;-66
2022/04/12 10:40:51;;;;;;;3.60;2.63;;;;;;;15.52;nan;-24249.88;4953681;29;20265;-66
2022/04/12 10:43:33;;;;;;;4.53;3.22;;;;;;;15.38;nan;-24245.94;4953319;29;20166;-66
2022/04/12 10:46:02;;;;;;;4.10;2.83;;;;;;;15.60;nan;-24252.13;4936518;29;20166;-66
2022/04/12 10:48:29;;;;;;;5.38;2.78;;;;;;;16.02;nan;-24263.59;4953657;29;20276;-67
2022/04/12 10:50:57;;;;;;;4.03;2.60;;;;;;;15.83;nan;-24258.56;4936152;29;20233;-66
2022/04/12 10:53:38;;;;;;;4.20;2.97;;;;;;;16.07;nan;-24265.00;4954173;29;20166;-66
2022/04/12 10:56:14;;;;;;;5.22;3.10;;;;;;;15.93;nan;-24261.06;4953917;29;20677;-66
2022/04/12 10:58:41;;;;;;;4.47;3.28;;;;;;;15.86;nan;-24259.38;4953714;29;20566;-66
2022/04/12 11:01:10;;;;;;;3.40;2.72;;;;;;;15.83;nan;-24258.41;4953156;29;20248;-66
2022/04/12 11:03:41;;;;;;;4.40;2.72;;;;;;;16.20;nan;-24268.63;4946824;29;20192;-66
2022/04/12 11:06:12;;;;;;;3.35;2.50;;;;;;;16.27;nan;-24270.59;4953186;29;20228;-66
2022/04/12 11:08:37;;;;;;;4.40;2.65;;;;;;;16.43;nan;-24275.06;4949928;29;20619;-66
2022/04/12 11:11:04;;;;;;;4.28;2.65;;;;;;;16.55;nan;-24278.41;4950659;29;20681;-67
2022/04/12 11:13:34;;;;;;;5.03;3.17;;;;;;;15.70;nan;-24254.78;4953890;29;20186;-66
2022/04/12 11:15:59;;;;;;;4.82;2.85;;;;;;;15.65;nan;-24253.38;4953984;28;20767;-66
2022/04/12 11:18:46;;;;;;;4.75;2.80;;;;;;;15.06;nan;-24237.00;4954443;29;20178;-67
2022/04/12 11:21:11;;;;;;;6.40;2.97;;;;;;;15.73;nan;-24255.75;4934850;29;20594;-67
2022/04/12 11:23:57;;;;;;;5.43;3.17;;;;;;;16.08;nan;-24265.41;4934897;29;20237;-66
2022/04/12 11:26:50;;;;;;;6.28;2.92;;;;;;;16.16;nan;-24267.50;4934595;29;20733;-66
2022/04/12 11:29:23;;;;;;;4.78;2.78;;;;;;;16.34;nan;-24272.53;4940514;29;20186;-67
2022/04/12 11:31:50;;;;;;;4.88;2.88;;;;;;;16.34;nan;-24272.69;4953030;28;20181;-67
2022/04/12 11:34:18;;;;;;;4.20;3.00;;;;;;;16.51;nan;-24277.16;4952075;28;20220;-67
2022/04/12 11:36:50;;;;;;;3.08;2.78;;;;;;;16.23;nan;-24269.47;4953321;29;20611;-66
2022/04/12 11:39:20;;;;;;;6.82;3.75;;;;;;;16.05;nan;-24264.56;4952659;28;20193;-67
2022/04/12 11:41:46;;;;;;;5.32;3.00;;;;;;;16.60;nan;-24279.81;4952730;29;20202;-67
2022/04/12 11:44:11;;;;;;;4.50;3.08;;;;;;;16.68;nan;-24282.03;4938380;29;20265;-67
2022/04/12 11:46:37;;;;;;;4.03;2.97;;;;;;;16.44;nan;-24275.34;4936099;29;20181;-67